createdAt,value
2023-03-18T00:00:19.219Z,98191.22
2023-03-18T00:02:24.178Z,98202.91
2023-03-18T00:04:31.691Z,98193.84
2023-03-18T00:06:39.038Z,98203.88
2023-03-18T00:08:45.444Z,98193.88
2023-03-18T00:10:54.034Z,98202.13
2023-03-18T00:12:59.536Z,98203.94
2023-03-18T00:15:04.448Z,98196.38
2023-03-18T00:17:09.585Z,98199.72
2023-03-18T00:19:14.812Z,98199.69
2023-03-18T00:21:23.740Z,98204.59
2023-03-18T00:23:29.752Z,98207.84
2023-03-18T00:25:34.651Z,98210.34
2023-03-18T00:27:41.150Z,98210.34
2023-03-18T00:29:46.517Z,98213.75
2023-03-18T00:31:51.686Z,98210.44
2023-03-18T00:33:58.997Z,98214.53
2023-03-18T00:36:04.198Z,98215.34
2023-03-18T00:38:20.732Z,98219.44
2023-03-18T00:40:30.226Z,98228.53
2023-03-18T00:42:39.022Z,98231.81
2023-03-18T00:44:45.128Z,98233.38
2023-03-18T00:46:51.158Z,98232.38
2023-03-18T00:48:58.552Z,98230.63
2023-03-18T00:51:03.920Z,98230.72
2023-03-18T00:53:11.520Z,98238.16
2023-03-18T00:55:16.689Z,98234.72
2023-03-18T00:57:21.584Z,98239.63
2023-03-18T00:59:27.414Z,98245.38
2023-03-18T01:01:33.226Z,98243.63
2023-03-18T01:03:39.412Z,98243.53
2023-03-18T01:05:45.348Z,98240.06
2023-03-18T01:07:50.617Z,98236.59
2023-03-18T01:09:58.108Z,98234.88
2023-03-18T01:12:03.088Z,98236.53
2023-03-18T01:14:07.997Z,98233.16
2023-03-18T01:16:13.625Z,98226.38
2023-03-18T01:18:19.761Z,98226.34
2023-03-18T01:20:25.528Z,98229.63
2023-03-18T01:22:33.130Z,98232.84
2023-03-18T01:24:39.515Z,98224.44
2023-03-18T01:26:47.568Z,98219.41
2023-03-18T01:28:52.967Z,98216.88
2023-03-18T01:30:58.705Z,98217.66
2023-03-18T01:33:04.847Z,98220.97
2023-03-18T01:35:12.235Z,98232.56
2023-03-18T01:37:26.749Z,98235.03
2023-03-18T01:39:43.332Z,98234.19
2023-03-18T01:41:58.501Z,98220.03
2023-03-18T01:44:10.578Z,98221.69
2023-03-18T01:46:38.054Z,98220.88
2023-03-18T01:48:44.210Z,98230.03
2023-03-18T01:50:55.842Z,98230.91
2023-03-18T01:53:06.348Z,98242.69
2023-03-18T01:55:17.579Z,98240.19
2023-03-18T01:57:26.187Z,98239.41
2023-03-18T01:59:35.840Z,98246.91
2023-03-18T02:01:46.722Z,98251.03
2023-03-18T02:03:54.422Z,98251.03
2023-03-18T02:06:00.056Z,98253.50
2023-03-18T02:08:06.229Z,98256.00
2023-03-18T02:10:16.524Z,98260.09
2023-03-18T02:12:29.339Z,98262.59
2023-03-18T02:14:38.568Z,98266.78
2023-03-18T02:16:50.382Z,98273.44
2023-03-18T02:19:01.349Z,98262.47
2023-03-18T02:21:25.792Z,98264.09
2023-03-18T02:23:46.458Z,98265.75
2023-03-18T02:25:57.996Z,98265.66
2023-03-18T02:28:10.453Z,98266.34
2023-03-18T02:30:21.844Z,98272.09
2023-03-18T02:32:30.704Z,98263.66
2023-03-18T02:34:38.173Z,98256.88
2023-03-18T02:36:43.463Z,98250.78
2023-03-18T02:38:50.084Z,98258.94
2023-03-18T02:41:01.560Z,98250.56
2023-03-18T02:43:25.849Z,98258.09
2023-03-18T02:45:45.465Z,98261.47
2023-03-18T02:47:52.855Z,98262.28
2023-03-18T02:50:01.360Z,98266.38
2023-03-18T02:52:07.513Z,98269.69
2023-03-18T02:54:16.596Z,98264.59
2023-03-18T02:56:21.986Z,98263.84
2023-03-18T02:58:29.644Z,98255.50
2023-03-18T03:00:38.396Z,98252.97
2023-03-18T03:02:43.638Z,98255.50
2023-03-18T03:04:49.290Z,98253.00
2023-03-18T03:06:59.620Z,98254.59
2023-03-18T03:09:18.991Z,98257.81
2023-03-18T03:11:25.049Z,98257.88
2023-03-18T03:13:36.152Z,98269.69
2023-03-18T03:15:43.064Z,98266.47
2023-03-18T03:17:49.527Z,98271.47
2023-03-18T03:19:56.456Z,98268.22
2023-03-18T03:22:02.127Z,98271.69
2023-03-18T03:24:09.936Z,98271.75
2023-03-18T03:26:18.937Z,98270.09
2023-03-18T03:28:24.013Z,98270.09
2023-03-18T03:30:33.239Z,98260.00
2023-03-18T03:32:38.837Z,98261.66
2023-03-18T03:34:44.183Z,98263.31
2023-03-18T03:36:50.288Z,98265.78
2023-03-18T03:38:55.515Z,98264.16
2023-03-18T03:41:01.025Z,98266.75
2023-03-18T03:43:06.599Z,98272.63
2023-03-18T03:45:13.982Z,98263.47
2023-03-18T03:47:22.951Z,98265.16
2023-03-18T03:49:28.483Z,98263.38
2023-03-18T03:51:34.254Z,98264.25
2023-03-18T03:53:39.530Z,98265.94
2023-03-18T03:55:45.084Z,98266.75
2023-03-18T03:57:51.260Z,98271.75
2023-03-18T03:59:56.898Z,98275.13
2023-03-18T04:02:27.774Z,98265.16
2023-03-18T04:04:33.852Z,98266.88
2023-03-18T04:06:40.308Z,98270.31
2023-03-18T04:08:46.274Z,98268.66
2023-03-18T04:10:51.233Z,98266.25
2023-03-18T04:12:56.470Z,98275.44
2023-03-18T04:15:01.504Z,98268.00
2023-03-18T04:17:08.174Z,98262.19
2023-03-18T04:19:16.853Z,98263.84
2023-03-18T04:21:22.529Z,98268.91
2023-03-18T04:23:33.196Z,98272.28
2023-03-18T04:25:38.742Z,98265.63
2023-03-18T04:27:44.894Z,98267.31
2023-03-18T04:29:51.896Z,98258.97
2023-03-18T04:31:59.300Z,98252.31
2023-03-18T04:34:04.615Z,98253.88
2023-03-18T04:36:13.061Z,98250.59
2023-03-18T04:38:18.672Z,98253.88
2023-03-18T04:40:25.763Z,98251.44
2023-03-18T04:42:31.444Z,98252.25
2023-03-18T04:44:37.237Z,98250.53
2023-03-18T04:46:44.033Z,98253.00
2023-03-18T04:48:49.254Z,98252.19
2023-03-18T04:50:55.149Z,98245.53
2023-03-18T04:53:07.550Z,98248.03
2023-03-18T04:55:14.433Z,98249.75
2023-03-18T04:57:21.757Z,98248.03
2023-03-18T04:59:31.000Z,98252.94
2023-03-18T05:01:39.119Z,98252.06
2023-03-18T05:03:45.395Z,98254.47
2023-03-18T05:05:53.095Z,98246.97
2023-03-18T05:08:06.093Z,98256.78
2023-03-18T05:10:13.558Z,98256.66
2023-03-18T05:12:20.005Z,98250.81
2023-03-18T05:14:25.356Z,98255.09
2023-03-18T05:16:33.367Z,98256.03
2023-03-18T05:18:38.722Z,98259.44
2023-03-18T05:20:45.970Z,98250.91
2023-03-18T05:22:53.478Z,98260.09
2023-03-18T05:25:13.929Z,98258.56
2023-03-18T05:27:21.352Z,98257.00
2023-03-18T05:29:36.096Z,98266.19
2023-03-18T05:32:07.786Z,98273.78
2023-03-18T05:34:13.627Z,98272.97
2023-03-18T05:36:24.442Z,98277.13
2023-03-18T05:38:37.476Z,98276.28
2023-03-18T05:40:45.746Z,98285.47
2023-03-18T05:42:58.752Z,98286.31
2023-03-18T05:45:14.404Z,98283.81
2023-03-18T05:47:27.905Z,98299.56
2023-03-18T05:49:43.405Z,98301.38
2023-03-18T05:51:57.307Z,98299.75
2023-03-18T05:54:16.462Z,98308.94
2023-03-18T05:56:25.745Z,98308.94
2023-03-18T05:58:35.571Z,98309.84
2023-03-18T06:00:59.363Z,98305.75
2023-03-18T06:03:05.588Z,98309.09
2023-03-18T06:05:13.762Z,98314.09
2023-03-18T06:07:18.981Z,98308.28
2023-03-18T06:09:26.182Z,98310.91
2023-03-18T06:11:34.059Z,98307.63
2023-03-18T06:13:39.868Z,98314.19
2023-03-18T06:15:48.738Z,98304.13
2023-03-18T06:17:54.197Z,98303.91
2023-03-18T06:19:59.916Z,98295.97
2023-03-18T06:22:04.869Z,98299.19
2023-03-18T06:24:10.808Z,98306.31
2023-03-18T06:26:17.132Z,98313.44
2023-03-18T06:28:28.172Z,98326.63
2023-03-18T06:30:37.753Z,98316.44
2023-03-18T06:32:42.967Z,98319.81
2023-03-18T06:34:48.596Z,98320.03
2023-03-18T06:36:53.788Z,98325.03
2023-03-18T06:38:59.314Z,98329.84
2023-03-18T06:41:05.574Z,98332.97
2023-03-18T06:43:21.421Z,98329.56
2023-03-18T06:45:30.617Z,98336.91
2023-03-18T06:47:41.634Z,98347.44
2023-03-18T06:49:48.578Z,98347.22
2023-03-18T06:51:57.908Z,98337.81
2023-03-18T06:54:03.236Z,98339.22
2023-03-18T06:56:13.587Z,98346.41
2023-03-18T06:58:30.589Z,98345.91
2023-03-18T07:00:49.074Z,98350.59
2023-03-18T07:03:01.812Z,98348.59
2023-03-18T07:05:08.729Z,98354.13
2023-03-18T07:07:14.700Z,98340.28
2023-03-18T07:09:20.111Z,98339.09
2023-03-18T07:11:31.310Z,98336.97
2023-03-18T07:13:40.624Z,98336.78
2023-03-18T07:15:56.998Z,98340.63
2023-03-18T07:18:05.144Z,98340.22
2023-03-18T07:20:11.895Z,98339.88
2023-03-18T07:22:17.923Z,98342.97
2023-03-18T07:24:23.798Z,98340.19
2023-03-18T07:26:29.618Z,98341.19
2023-03-18T07:28:34.597Z,98351.91
2023-03-18T07:30:40.783Z,98356.63
2023-03-18T07:32:49.778Z,98353.03
2023-03-18T07:34:55.016Z,98345.94
2023-03-18T07:37:00.612Z,98353.81
2023-03-18T07:39:05.837Z,98362.91
2023-03-18T07:41:11.313Z,98361.84
2023-03-18T07:43:17.375Z,98363.41
2023-03-18T07:45:22.911Z,98359.88
2023-03-18T07:47:28.402Z,98363.06
2023-03-18T07:49:35.868Z,98361.31
2023-03-18T07:51:41.565Z,98351.72
2023-03-18T07:53:47.633Z,98353.88
2023-03-18T07:55:52.802Z,98359.47
2023-03-18T07:57:57.962Z,98362.50
2023-03-18T08:00:04.652Z,98365.84
2023-03-18T08:02:18.795Z,98368.44
2023-03-18T08:04:23.875Z,98368.59
2023-03-18T08:06:32.398Z,98367.22
2023-03-18T08:08:37.265Z,98367.09
2023-03-18T08:10:42.407Z,98369.03
2023-03-18T08:12:52.997Z,98369.38
2023-03-18T08:14:59.940Z,98370.44
2023-03-18T08:17:05.692Z,98379.03
2023-03-18T08:19:10.689Z,98374.94
2023-03-18T08:21:16.014Z,98379.47
2023-03-18T08:23:23.819Z,98384.34
2023-03-18T08:25:29.395Z,98382.28
2023-03-18T08:27:34.283Z,98380.53
2023-03-18T08:29:39.405Z,98383.56
2023-03-18T08:31:44.735Z,98370.81
2023-03-18T08:33:49.683Z,98376.34
2023-03-18T08:35:54.771Z,98375.03
2023-03-18T08:38:00.067Z,98381.03
2023-03-18T08:40:09.792Z,98378.06
2023-03-18T08:42:16.323Z,98373.13
2023-03-18T08:44:21.256Z,98382.72
2023-03-18T08:46:26.314Z,98384.59
2023-03-18T08:48:32.001Z,98380.00
2023-03-18T08:50:37.817Z,98382.69
2023-03-18T08:52:43.056Z,98376.63
2023-03-18T08:54:47.932Z,98373.34
2023-03-18T08:56:55.372Z,98375.41
2023-03-18T08:59:00.452Z,98370.16
2023-03-18T09:01:06.369Z,98369.53
2023-03-18T09:03:11.984Z,98366.75
2023-03-18T09:05:17.861Z,98360.91
2023-03-18T09:07:22.728Z,98364.66
2023-03-18T09:09:40.829Z,98363.28
2023-03-18T09:11:50.087Z,98361.34
2023-03-18T09:13:57.542Z,98368.13
2023-03-18T09:16:02.980Z,98362.91
2023-03-18T09:18:11.964Z,98362.72
2023-03-18T09:20:19.787Z,98363.97
2023-03-18T09:22:25.204Z,98365.97
2023-03-18T09:24:30.154Z,98366.56
2023-03-18T09:26:35.719Z,98372.34
2023-03-18T09:28:40.829Z,98373.03
2023-03-18T09:30:48.509Z,98373.56
2023-03-18T09:32:54.168Z,98369.44
2023-03-18T09:34:59.533Z,98372.72
2023-03-18T09:37:05.209Z,98374.34
2023-03-18T09:39:10.172Z,98374.19
2023-03-18T09:41:36.495Z,98380.88
2023-03-18T09:43:57.982Z,98381.19
2023-03-18T09:46:15.774Z,98384.50
2023-03-18T09:48:55.658Z,98378.28
2023-03-18T09:51:09.565Z,98386.91
2023-03-18T09:53:25.220Z,98389.69
2023-03-18T09:55:40.214Z,98390.38
2023-03-18T09:57:49.409Z,98387.38
2023-03-18T10:00:01.005Z,98382.78
2023-03-18T10:02:20.251Z,98386.56
2023-03-18T10:04:31.550Z,98380.84
2023-03-18T10:06:42.986Z,98378.53
2023-03-18T10:08:59.910Z,98387.56
2023-03-18T10:11:10.897Z,98384.31
2023-03-18T10:13:22.629Z,98380.84
2023-03-18T10:15:39.871Z,98382.94
2023-03-18T10:17:53.849Z,98387.28
2023-03-18T10:20:04.467Z,98384.72
2023-03-18T10:22:41.158Z,98381.63
2023-03-18T10:24:53.454Z,98380.66
2023-03-18T10:27:12.465Z,98379.56
2023-03-18T10:29:33.362Z,98389.03
2023-03-18T10:31:50.340Z,98392.91
2023-03-18T10:34:02.835Z,98390.00
2023-03-18T10:36:20.312Z,98385.03
2023-03-18T10:38:31.099Z,98386.06
2023-03-18T10:40:41.309Z,98390.38
2023-03-18T10:42:47.977Z,98385.97
2023-03-18T10:44:54.931Z,98385.41
2023-03-18T10:47:05.432Z,98379.66
2023-03-18T10:49:19.375Z,98381.22
2023-03-18T10:51:31.410Z,98384.47
2023-03-18T10:53:44.390Z,98376.94
2023-03-18T10:56:01.329Z,98372.69
2023-03-18T10:58:19.565Z,98374.56
2023-03-18T11:00:33.588Z,98371.13
2023-03-18T11:02:42.103Z,98365.09
2023-03-18T11:04:55.611Z,98357.88
2023-03-18T11:07:02.987Z,98356.72
2023-03-18T11:09:12.908Z,98357.31
2023-03-18T11:11:29.258Z,98351.66
2023-03-18T11:13:35.812Z,98349.44
2023-03-18T11:15:44.635Z,98347.63
2023-03-18T11:17:52.931Z,98347.25
2023-03-18T11:20:22.304Z,98350.06
2023-03-18T11:22:29.208Z,98354.59
2023-03-18T11:24:40.023Z,98346.81
2023-03-18T11:26:56.015Z,98352.06
2023-03-18T11:29:08.360Z,98343.41
2023-03-18T11:31:20.542Z,98350.66
2023-03-18T11:33:28.785Z,98342.25
2023-03-18T11:35:42.656Z,98338.06
2023-03-18T11:37:50.789Z,98342.19
2023-03-18T11:39:59.066Z,98335.09
2023-03-18T11:42:04.631Z,98340.91
2023-03-18T11:44:19.048Z,98332.50
2023-03-18T11:46:27.446Z,98343.03
2023-03-18T11:48:38.081Z,98331.91
2023-03-18T11:51:08.629Z,98336.59
2023-03-18T11:53:22.774Z,98331.69
2023-03-18T11:55:41.905Z,98324.75
2023-03-18T11:58:11.425Z,98325.88
2023-03-18T12:00:30.652Z,98329.47
2023-03-18T12:03:30.126Z,98325.13
2023-03-18T12:05:55.097Z,98326.34
2023-03-18T12:08:10.725Z,98318.59
2023-03-18T12:10:27.151Z,98315.47
2023-03-18T12:12:53.561Z,98311.31
2023-03-18T12:15:08.064Z,98313.22
2023-03-18T12:17:28.815Z,98317.53
2023-03-18T12:19:54.352Z,98316.88
2023-03-18T12:22:21.977Z,98316.84
2023-03-18T12:24:52.517Z,98312.56
2023-03-18T12:27:06.846Z,98309.97
2023-03-18T12:29:41.235Z,98307.78
2023-03-18T12:32:03.161Z,98312.91
2023-03-18T12:34:17.615Z,98304.72
2023-03-18T12:36:34.371Z,98307.19
2023-03-18T12:39:30.611Z,98300.66
2023-03-18T12:41:50.027Z,98299.47
2023-03-18T12:44:10.834Z,98300.84
2023-03-18T12:46:28.812Z,98294.47
2023-03-18T12:48:44.511Z,98292.59
2023-03-18T12:50:57.600Z,98299.03
2023-03-18T12:53:07.058Z,98289.53
2023-03-18T12:55:21.824Z,98295.25
2023-03-18T12:57:39.784Z,98294.34
2023-03-18T12:59:53.280Z,98297.19
2023-03-18T13:02:29.582Z,98290.88
2023-03-18T13:04:39.217Z,98291.97
2023-03-18T13:06:50.190Z,98285.44
2023-03-18T13:09:07.164Z,98282.91
2023-03-18T13:11:32.567Z,98294.75
2023-03-18T13:13:43.959Z,98296.38
2023-03-18T13:15:53.725Z,98294.34
2023-03-18T13:18:06.108Z,98294.25
2023-03-18T13:20:19.279Z,98299.13
2023-03-18T13:23:02.713Z,98296.03
2023-03-18T13:25:21.136Z,98293.75
2023-03-18T13:27:54.116Z,98285.59
2023-03-18T13:30:07.920Z,98281.69
2023-03-18T13:32:41.636Z,98277.16
2023-03-18T13:35:34.202Z,98275.19
2023-03-18T13:38:24.326Z,98270.16
2023-03-18T13:40:52.612Z,98267.50
2023-03-18T13:43:03.355Z,98256.84
2023-03-18T13:45:20.291Z,98251.38
2023-03-18T13:47:27.251Z,98258.09
2023-03-18T13:49:38.080Z,98254.44
2023-03-18T13:51:54.585Z,98251.91
2023-03-18T13:54:05.083Z,98253.69
2023-03-18T13:56:31.443Z,98247.47
2023-03-18T13:58:48.287Z,98248.28
2023-03-18T14:01:28.769Z,98247.13
2023-03-18T14:03:37.016Z,98245.59
2023-03-18T14:05:45.819Z,98247.09
2023-03-18T14:07:51.955Z,98243.94
2023-03-18T14:10:19.530Z,98236.47
2023-03-18T14:12:42.189Z,98241.53
2023-03-18T14:15:06.228Z,98252.13
2023-03-18T14:17:22.513Z,98248.06
2023-03-18T14:19:32.673Z,98247.06
2023-03-18T14:21:49.170Z,98244.50
2023-03-18T14:24:08.180Z,98244.66
2023-03-18T14:26:26.712Z,98233.72
2023-03-18T14:28:39.329Z,98229.72
2023-03-18T14:31:00.726Z,98242.81
2023-03-18T14:33:09.199Z,98235.78
2023-03-18T14:35:30.468Z,98239.56
2023-03-18T14:37:38.368Z,98240.63
2023-03-18T14:39:46.759Z,98228.81
2023-03-18T14:41:58.563Z,98225.28
2023-03-18T14:44:21.732Z,98226.31
2023-03-18T14:46:37.224Z,98213.16
2023-03-18T14:48:42.856Z,98223.09
2023-03-18T14:50:51.705Z,98222.38
2023-03-18T14:53:01.456Z,98213.53
2023-03-18T14:55:18.323Z,98199.53
2023-03-18T14:57:25.797Z,98196.88
2023-03-18T14:59:30.922Z,98193.09
2023-03-18T15:01:42.912Z,98197.78
2023-03-18T15:03:51.469Z,98196.34
2023-03-18T15:06:01.738Z,98203.34
2023-03-18T15:08:12.793Z,98207.03
2023-03-18T15:10:25.223Z,98207.78
2023-03-18T15:12:32.060Z,98201.28
2023-03-18T15:14:37.960Z,98203.66
2023-03-18T15:16:52.981Z,98209.22
2023-03-18T15:19:00.272Z,98190.97
2023-03-18T15:21:10.992Z,98193.84
2023-03-18T15:23:17.614Z,98187.44
2023-03-18T15:25:25.393Z,98184.66
2023-03-18T15:27:34.572Z,98186.03
2023-03-18T15:29:55.863Z,98184.84
2023-03-18T15:32:21.632Z,98178.50
2023-03-18T15:34:34.248Z,98173.38
2023-03-18T15:36:47.382Z,98185.88
2023-03-18T15:38:53.576Z,98182.03
2023-03-18T15:41:01.747Z,98178.81
2023-03-18T15:43:19.104Z,98172.78
2023-03-18T15:45:27.413Z,98183.13
2023-03-18T15:47:36.986Z,98183.94
2023-03-18T15:49:53.658Z,98188.28
2023-03-18T15:52:04.874Z,98187.66
2023-03-18T15:54:19.502Z,98202.09
2023-03-18T15:56:32.365Z,98201.88
2023-03-18T15:58:39.991Z,98215.88
2023-03-18T16:00:45.038Z,98211.09
2023-03-18T16:02:53.177Z,98210.44
2023-03-18T16:05:09.790Z,98213.00
2023-03-18T16:07:22.364Z,98212.38
2023-03-18T16:09:29.706Z,98202.63
2023-03-18T16:11:36.949Z,98204.59
2023-03-18T16:13:43.782Z,98199.47
2023-03-18T16:15:49.521Z,98205.19
2023-03-18T16:17:58.892Z,98205.22
2023-03-18T16:20:06.545Z,98202.38
2023-03-18T16:22:12.555Z,98196.41
2023-03-18T16:24:17.430Z,98201.91
2023-03-18T16:26:22.656Z,98217.28
2023-03-18T16:28:30.005Z,98215.03
2023-03-18T16:30:40.078Z,98211.91
2023-03-18T16:32:44.967Z,98213.47
2023-03-18T16:34:52.469Z,98212.81
2023-03-18T16:36:57.960Z,98218.19
2023-03-18T16:39:03.666Z,98217.94
2023-03-18T16:41:09.468Z,98221.69
2023-03-18T16:43:22.258Z,98224.50
2023-03-18T16:45:31.105Z,98230.16
2023-03-18T16:47:37.095Z,98220.50
2023-03-18T16:49:42.284Z,98234.59
2023-03-18T16:51:50.524Z,98228.09
2023-03-18T16:53:56.212Z,98229.59
2023-03-18T16:56:04.580Z,98233.78
2023-03-18T16:58:13.576Z,98234.50
2023-03-18T17:00:24.890Z,98237.25
2023-03-18T17:02:36.004Z,98237.53
2023-03-18T17:04:40.915Z,98240.47
2023-03-18T17:06:46.248Z,98242.63
2023-03-18T17:08:53.989Z,98248.50
2023-03-18T17:11:02.549Z,98258.00
2023-03-18T17:13:13.485Z,98251.63
2023-03-18T17:15:22.654Z,98255.00
2023-03-18T17:17:33.977Z,98259.56
2023-03-18T17:19:40.116Z,98256.31
2023-03-18T17:21:48.720Z,98265.19
2023-03-18T17:23:57.129Z,98263.38
2023-03-18T17:26:04.750Z,98262.28
2023-03-18T17:28:11.140Z,98269.69
2023-03-18T17:30:21.143Z,98275.97
2023-03-18T17:32:26.515Z,98276.66
2023-03-18T17:34:32.185Z,98273.13
2023-03-18T17:36:37.081Z,98284.13
2023-03-18T17:38:42.476Z,98284.91
2023-03-18T17:40:50.693Z,98285.84
2023-03-18T17:42:56.187Z,98283.63
2023-03-18T17:45:08.742Z,98279.97
2023-03-18T17:47:14.568Z,98284.56
2023-03-18T17:49:22.393Z,98285.94
2023-03-18T17:51:27.972Z,98294.97
2023-03-18T17:53:37.492Z,98294.44
2023-03-18T17:55:42.404Z,98297.06
2023-03-18T17:57:50.722Z,98297.28
2023-03-18T17:59:57.343Z,98294.94
2023-03-18T18:02:02.637Z,98293.34
2023-03-18T18:04:08.049Z,98291.97
2023-03-18T18:06:20.234Z,98294.06
2023-03-18T18:08:28.589Z,98300.91
2023-03-18T18:10:33.469Z,98296.13
2023-03-18T18:12:38.545Z,98296.31
2023-03-18T18:14:46.458Z,98298.91
2023-03-18T18:16:53.628Z,98299.84
2023-03-18T18:18:58.748Z,98300.31
2023-03-18T18:21:06.102Z,98293.75
2023-03-18T18:23:25.390Z,98290.78
2023-03-18T18:25:32.249Z,98291.06
2023-03-18T18:27:37.239Z,98299.88
2023-03-18T18:29:46.146Z,98294.06
2023-03-18T18:31:52.315Z,98300.50
2023-03-18T18:33:57.637Z,98305.06
2023-03-18T18:36:03.300Z,98303.56
2023-03-18T18:38:09.614Z,98303.69
2023-03-18T18:40:17.971Z,98302.06
2023-03-18T18:42:22.826Z,98310.38
2023-03-18T18:44:28.576Z,98310.00
2023-03-18T18:46:36.474Z,98312.75
2023-03-18T18:48:41.861Z,98309.47
2023-03-18T18:50:47.722Z,98306.03
2023-03-18T18:52:52.663Z,98312.94
2023-03-18T18:54:58.084Z,98310.69
2023-03-18T18:57:03.002Z,98312.56
2023-03-18T18:59:27.022Z,98318.66
2023-03-18T19:01:34.662Z,98310.19
2023-03-18T19:03:41.534Z,98317.22
2023-03-18T19:05:48.449Z,98315.88
2023-03-18T19:07:53.650Z,98315.25
2023-03-18T19:09:59.323Z,98311.25
2023-03-18T19:12:04.720Z,98304.69
2023-03-18T19:14:24.321Z,98299.63
2023-03-18T19:16:36.020Z,98301.25
2023-03-18T19:18:44.041Z,98305.56
2023-03-18T19:20:51.016Z,98304.94
2023-03-18T19:22:57.755Z,98304.31
2023-03-18T19:25:03.005Z,98307.13
2023-03-18T19:27:18.412Z,98298.91
2023-03-18T19:29:23.597Z,98299.59
2023-03-18T19:31:35.083Z,98300.66
2023-03-18T19:33:43.584Z,98295.19
2023-03-18T19:35:49.284Z,98294.66
2023-03-18T19:37:54.655Z,98295.84
2023-03-18T19:40:00.909Z,98292.81
2023-03-18T19:42:06.235Z,98298.25
2023-03-18T19:44:20.496Z,98297.25
2023-03-18T19:46:32.685Z,98310.63
2023-03-18T19:48:37.539Z,98303.69
2023-03-18T19:50:45.195Z,98304.97
2023-03-18T19:52:50.323Z,98313.66
2023-03-18T19:54:56.800Z,98315.06
2023-03-18T19:57:04.242Z,98318.78
2023-03-18T19:59:22.120Z,98319.13
2023-03-18T20:01:30.559Z,98323.72
2023-03-18T20:03:35.619Z,98324.19
2023-03-18T20:05:41.025Z,98331.41
2023-03-18T20:07:50.376Z,98335.03
2023-03-18T20:09:56.788Z,98335.41
2023-03-18T20:12:05.898Z,98340.50
2023-03-18T20:14:24.592Z,98337.63
2023-03-18T20:16:29.974Z,98343.88
2023-03-18T20:18:34.878Z,98339.50
2023-03-18T20:20:39.996Z,98348.91
2023-03-18T20:22:51.874Z,98340.94
2023-03-18T20:24:57.237Z,98347.09
2023-03-18T20:27:02.108Z,98347.91
2023-03-18T20:29:18.096Z,98351.53
2023-03-18T20:31:23.311Z,98351.06
2023-03-18T20:33:28.226Z,98352.44
2023-03-18T20:35:37.302Z,98360.22
2023-03-18T20:37:42.340Z,98359.56
2023-03-18T20:39:49.901Z,98359.00
2023-03-18T20:41:55.351Z,98354.09
2023-03-18T20:44:00.193Z,98350.91
2023-03-18T20:46:05.472Z,98353.47
2023-03-18T20:48:10.527Z,98355.44
2023-03-18T20:50:17.901Z,98353.97
2023-03-18T20:52:28.592Z,98359.94
2023-03-18T20:54:34.704Z,98362.53
2023-03-18T20:56:42.163Z,98366.00
2023-03-18T20:58:47.001Z,98375.56
2023-03-18T21:00:52.666Z,98371.59
2023-03-18T21:03:00.524Z,98376.69
2023-03-18T21:05:06.788Z,98376.78
2023-03-18T21:07:16.597Z,98381.91
2023-03-18T21:09:21.856Z,98381.25
2023-03-18T21:11:32.989Z,98378.94
2023-03-18T21:13:41.822Z,98382.19
2023-03-18T21:15:46.760Z,98383.00
2023-03-18T21:17:52.010Z,98377.75
2023-03-18T21:20:11.123Z,98384.81
2023-03-18T21:22:24.840Z,98380.75
2023-03-18T21:24:31.659Z,98386.63
2023-03-18T21:26:36.717Z,98384.09
2023-03-18T21:28:44.317Z,98379.81
2023-03-18T21:30:52.222Z,98380.53
2023-03-18T21:32:57.621Z,98378.91
2023-03-18T21:35:02.741Z,98383.09
2023-03-18T21:37:16.988Z,98377.03
2023-03-18T21:39:22.054Z,98379.38
2023-03-18T21:41:32.037Z,98375.22
2023-03-18T21:43:39.685Z,98377.84
2023-03-18T21:45:48.565Z,98375.28
2023-03-18T21:47:55.033Z,98377.66
2023-03-18T21:49:59.902Z,98378.59
2023-03-18T21:52:05.125Z,98375.28
2023-03-18T21:54:19.263Z,98376.19
2023-03-18T21:56:24.828Z,98372.97
2023-03-18T21:58:30.947Z,98373.91
2023-03-18T22:00:36.224Z,98374.03
2023-03-18T22:02:43.677Z,98369.88
2023-03-18T22:04:48.536Z,98368.22
2023-03-18T22:06:53.419Z,98370.50
2023-03-18T22:08:59.452Z,98368.06
2023-03-18T22:11:04.555Z,98368.09
2023-03-18T22:13:21.202Z,98369.03
2023-03-18T22:15:39.726Z,98365.78
2023-03-18T22:17:47.745Z,98356.63
2023-03-18T22:19:52.777Z,98360.00
2023-03-18T22:21:58.102Z,98357.47
2023-03-18T22:24:03.104Z,98358.44
2023-03-18T22:26:08.705Z,98358.63
2023-03-18T22:28:14.900Z,98357.81
2023-03-18T22:30:20.214Z,98362.06
2023-03-18T22:32:37.147Z,98359.56
2023-03-18T22:34:44.628Z,98363.00
2023-03-18T22:36:49.734Z,98368.84
2023-03-18T22:38:55.188Z,98366.47
2023-03-18T22:41:00.640Z,98365.75
2023-03-18T22:43:06.050Z,98363.47
2023-03-18T22:45:23.821Z,98371.69
2023-03-18T22:47:29.429Z,98372.56
2023-03-18T22:49:34.311Z,98367.53
2023-03-18T22:51:44.764Z,98368.31
2023-03-18T22:53:52.513Z,98373.31
2023-03-18T22:55:58.821Z,98372.59
2023-03-18T22:58:03.950Z,98371.00
2023-03-18T23:00:27.441Z,98364.44
2023-03-18T23:02:33.008Z,98366.97
2023-03-18T23:04:38.444Z,98370.47
2023-03-18T23:06:46.074Z,98373.88
2023-03-18T23:08:51.263Z,98373.13
2023-03-18T23:10:59.176Z,98371.38
2023-03-18T23:13:04.404Z,98376.28
2023-03-18T23:15:11.773Z,98378.06
2023-03-18T23:17:19.589Z,98373.84
2023-03-18T23:19:24.656Z,98363.75
2023-03-18T23:21:29.610Z,98367.88
2023-03-18T23:23:37.833Z,98363.66
2023-03-18T23:25:44.210Z,98367.97
2023-03-18T23:27:49.725Z,98369.59
2023-03-18T23:29:54.914Z,98371.97
2023-03-18T23:31:59.958Z,98372.69
2023-03-18T23:34:05.244Z,98373.50
2023-03-18T23:36:11.751Z,98374.44
2023-03-18T23:38:17.328Z,98376.16
2023-03-18T23:40:24.850Z,98377.00
2023-03-18T23:42:29.862Z,98386.94
2023-03-18T23:44:34.953Z,98378.66
2023-03-18T23:46:42.108Z,98385.31
2023-03-18T23:48:47.972Z,98375.19
2023-03-18T23:50:53.759Z,98374.34
2023-03-18T23:52:59.337Z,98383.53
2023-03-18T23:55:04.227Z,98382.72
2023-03-18T23:57:14.128Z,98384.38
2023-03-18T23:59:19.816Z,98382.69
